Latest Weather Observations for Dalby

IDQ60801

Issued at 8:35 pm EST Wednesday 16 April 2014 (issued every 30 minutes, with the page automatically refreshed every 10 minutes)

About weather observations | Map of weather stations | Latest weather observations for QLD | Other Formats
Station Details ID: 041522 Name: DALBY AIRPORT Lat: -27.16 Lon: 151.26 Height: 343.9 m
Data from the previous 72 hours. | See also: Recent months at Dalby
Date/Time
EST
Temp
°C
App
Temp
°C
Dew
Point
Rel
Hum
%
Delta-T
°C
Wind Press
QNH
hPa
Press
MSL
hPa
Rain
since 9 am
mm
Dir
 
Spd
km/h
Gust
km/h
Spd
kts
Gust
kts
16/08:30pm 15.8 15.0 12.9 83 1.6 ENE 9 11 5 6 1016.5 - 0.0
16/08:00pm 16.8 17.6 12.7 77 2.3 ESE 0 0 0 0 1016.3 1015.1 0.0
16/07:30pm 18.4 19.3 13.0 71 3.1 CALM 0 0 0 0 1015.9 - 0.0
16/07:00pm 19.1 19.4 13.3 69 3.3 ESE 4 7 2 4 1015.7 1014.4 0.0
16/06:30pm 19.4 19.2 13.6 69 3.4 W 7 9 4 5 1015.4 - 0.0
16/06:00pm 20.8 20.4 12.5 59 4.8 WNW 6 7 3 4 1015.2 1013.9 0.0
16/05:30pm 23.1 23.8 12.1 50 6.3 CALM 0 6 0 3 1015.1 - 0.0
16/05:00pm 22.8 22.7 12.1 51 6.1 S 4 7 2 4 1014.7 1013.5 0.0
16/04:30pm 23.0 20.8 12.0 50 6.3 SSE 15 20 8 11 1014.5 - 0.0
16/04:00pm 23.7 22.7 13.3 52 6.1 S 11 15 6 8 1014.4 1013.2 0.0
16/03:30pm 22.7 22.8 14.5 60 4.9 WSW 7 9 4 5 1014.2 - 0.0
16/03:00pm 23.1 22.3 13.0 53 5.9 WSW 9 13 5 7 1014.4 1013.2 0.0
16/02:30pm 23.1 22.4 12.1 50 6.3 SE 7 11 4 6 1014.6 - 0.0
16/02:00pm 21.7 21.3 14.1 62 4.5 SE 9 11 5 6 1014.6 1013.4 0.0
16/01:30pm 24.8 21.4 11.4 43 7.7 SSW 20 24 11 13 1014.5 - 0.0
16/01:00pm 25.2 24.0 11.7 43 7.8 W 9 22 5 12 1014.9 1013.6 0.0
16/12:30pm 24.5 22.9 12.8 48 6.9 W 13 20 7 11 1015.5 - 0.0
16/12:00pm 23.6 21.7 12.9 51 6.2 WSW 15 20 8 11 1016.1 1014.9 0.0
16/11:30am 23.4 22.4 13.3 53 5.9 W 11 19 6 10 1016.5 - 0.0
16/11:00am 22.9 21.4 14.2 58 5.2 NW 15 30 8 16 1017.1 1015.9 0.0
16/10:30am 22.4 20.3 13.5 57 5.2 NW 17 24 9 13 1017.4 - 0.0
16/10:00am 22.2 21.3 13.8 59 4.9 NW 11 24 6 13 1017.6 1016.4 0.0
16/09:30am 20.5 20.2 13.2 63 4.2 SW 7 13 4 7 1017.7 - 0.0
16/09:00am 19.7 19.2 13.9 69 3.4 WSW 9 11 5 6 1018.0 1016.7 0.0
16/08:30am 19.1 20.2 13.5 70 3.2 CALM 0 6 0 3 1018.0 - 0.0
16/08:00am 17.7 18.7 13.2 75 2.6 CALM 0 0 0 0 1017.6 1016.4 0.0
16/07:30am 15.7 15.6 13.2 85 1.4 E 6 9 3 5 1017.4 - 0.0
16/07:00am 14.5 15.3 12.5 88 1.1 CALM 0 0 0 0 1017.3 1016.1 0.0
16/06:30am 13.8 14.6 12.4 91 0.8 CALM 0 0 0 0 1017.0 - 0.0
16/06:00am 13.5 14.2 12.1 91 0.8 S 0 4 0 2 1016.7 1015.5 0.0
16/05:30am 12.9 11.6 11.3 90 0.9 ESE 9 11 5 6 1016.2 - 0.0
16/05:00am 13.6 12.1 12.0 90 0.9 SE 11 11 6 6 1016.0 1014.8 0.0
16/04:30am 13.3 11.7 11.5 89 1.0 ESE 11 13 6 7 1015.7 - 0.0
16/04:00am 13.8 11.9 11.8 88 1.1 SE 13 15 7 8 1015.8 1014.5 0.0
16/03:30am 13.8 12.7 12.0 89 1.0 SSE 9 11 5 6 1015.8 - 0.0
16/03:00am 13.7 13.9 11.7 88 1.1 N 2 7 1 4 1015.8 1014.5 0.0
16/02:30am 14.0 12.4 11.7 86 1.3 ESE 11 13 6 7 1015.6 - 0.0
16/02:00am 14.5 12.7 12.2 86 1.3 ESE 13 15 7 8 1015.7 1014.4 0.0
16/01:30am 14.9 12.9 12.6 86 1.3 E 15 19 8 10 1016.0 - 0.0
16/01:00am 15.2 13.2 12.7 85 1.4 E 15 17 8 9 1016.4 1015.2 0.0
16/12:30am 15.6 13.3 12.9 84 1.5 ESE 17 20 9 11 1016.4 - 0.0
16/12:00am 15.7 14.2 13.2 85 1.4 E 13 15 7 8 1016.6 1015.4 0.0
 
Date/Time
EST
Temp
°C
App
Temp
°C
Dew
Point
Rel
Hum
%
Delta-T
°C
Wind Press
QNH
hPa
Press
MSL
hPa
Rain
since 9 am
mm
Dir
 
Spd
km/h
Gust
km/h
Spd
kts
Gust
kts
15/11:30pm 15.2 14.1 13.1 87 1.2 E 11 15 6 8 1016.4 - 0.0
15/11:00pm 15.4 13.9 13.1 86 1.3 E 13 15 7 8 1016.5 1015.3 0.0
15/10:30pm 15.0 13.8 12.9 87 1.2 ENE 11 13 6 7 1016.7 - 0.0
15/10:00pm 16.0 15.3 13.1 83 1.6 NE 9 11 5 6 1017.1 1015.9 0.0
15/09:30pm 16.5 15.9 13.4 82 1.8 E 9 13 5 7 1016.9 - 0.0
15/09:00pm 16.9 15.6 13.6 81 1.9 E 13 15 7 8 1016.4 1015.2 0.0
15/08:30pm 17.6 16.2 13.5 77 2.4 E 13 13 7 7 1016.2 - 0.0
15/08:00pm 18.6 17.3 13.7 73 2.8 E 13 17 7 9 1016.0 1014.8 0.0
15/07:30pm 19.4 17.4 13.8 70 3.3 E 17 22 9 12 1015.7 - 0.0
15/07:00pm 20.6 18.0 13.3 63 4.2 E 19 20 10 11 1015.4 1014.1 0.0
15/06:30pm 21.2 19.8 12.3 57 5.1 SE 11 15 6 8 1015.2 - 0.0
15/06:00pm 22.4 21.1 12.4 53 5.8 SSE 11 17 6 9 1015.2 1013.9 0.0
15/05:30pm 23.1 21.0 11.2 47 6.7 SSE 13 20 7 11 1014.6 - 0.0
15/05:00pm 23.6 21.5 11.3 46 7.0 SE 13 17 7 9 1014.3 1013.1 0.0
15/04:30pm 24.3 23.8 11.9 45 7.1 SE 6 9 3 5 1014.1 - 0.0
15/04:00pm 24.4 23.7 13.3 50 6.6 E 9 15 5 8 1014.0 1012.8 0.0
15/03:30pm 24.7 23.3 12.3 46 7.2 ESE 11 17 6 9 1014.0 - 0.0
15/03:00pm 24.2 23.7 11.9 46 7.1 SE 6 13 3 7 1014.1 1012.9 0.0
15/02:30pm 24.2 22.4 12.2 47 7.0 SE 13 20 7 11 1014.4 - 0.0
15/02:00pm 24.3 23.2 11.9 45 7.1 ESE 9 20 5 11 1014.6 1013.4 0.0
15/01:30pm 24.2 22.6 14.0 53 6.1 SE 15 20 8 11 1014.9 - 0.0
15/01:00pm 23.7 21.9 12.0 48 6.7 SSE 13 20 7 11 1015.1 1013.8 0.0
15/12:30pm 23.6 20.6 12.6 50 6.4 SE 20 26 11 14 1015.5 - 0.0
15/12:00pm 23.1 21.9 14.1 57 5.4 SE 13 20 7 11 1015.9 1014.6 0.0
15/11:30am 22.3 20.8 14.2 60 4.8 SE 15 20 8 11 1016.4 - 0.0
15/11:00am 22.0 19.5 13.6 59 4.9 SE 19 26 10 14 1016.8 1015.6 0.0
15/10:30am 21.3 18.8 14.0 63 4.3 ESE 20 30 11 16 1017.2 - 0.0
15/10:00am 21.1 19.1 14.0 64 4.2 SE 17 24 9 13 1017.5 1016.3 0.0
15/09:30am 20.3 18.0 14.0 67 3.7 ESE 19 22 10 12 1017.6 - 0.0
15/09:00am 19.6 17.1 14.0 70 3.3 E 20 24 11 13 1017.7 1016.5 0.0
15/08:30am 18.8 17.8 14.5 76 2.5 SE 13 19 7 10 1017.3 - 0.0
15/08:00am 17.6 17.3 14.5 82 1.8 SE 9 11 5 6 1017.2 1016.0 0.0
15/07:30am 16.1 15.7 14.1 88 1.2 S 9 11 5 6 1017.2 - 0.0
15/07:00am 15.4 15.4 14.3 93 0.6 S 7 9 4 5 1016.9 1015.7 0.0
15/06:30am 14.0 13.8 12.9 93 0.6 WSW 6 9 3 5 1016.7 - 0.0
15/06:00am 14.0 13.7 12.6 91 0.8 E 6 7 3 4 1016.2 1015.0 0.0
15/05:30am 14.5 13.4 13.2 92 0.7 SE 11 11 6 6 1016.2 - 0.0
15/05:00am 14.4 14.0 13.1 92 0.7 SE 7 9 4 5 1016.1 1014.9 0.0
15/04:30am 14.2 13.8 12.9 92 0.7 SE 7 9 4 5 1015.8 - 0.0
15/04:00am 14.0 13.5 12.7 92 0.7 S 7 7 4 4 1015.6 1014.3 0.0
15/03:30am 13.7 12.7 12.3 91 0.8 ESE 9 9 5 5 1015.3 - 0.0
15/03:00am 14.3 13.4 12.7 90 0.9 SE 9 13 5 7 1015.1 1013.8 0.0
15/02:30am 14.8 14.1 13.2 90 0.9 SSW 9 11 5 6 1015.3 - 0.0
15/02:00am 15.5 14.2 13.7 89 1.0 SSE 13 19 7 10 1015.1 1013.8 0.0
15/01:30am 15.5 14.2 13.7 89 1.0 SSE 13 19 7 10 1015.1 - 0.0
15/01:00am 15.6 14.3 13.8 89 1.0 SSE 13 15 7 8 1015.5 1014.2 0.0
15/12:30am 15.7 14.5 13.9 89 1.0 SSE 13 17 7 9 1015.4 - 0.0
15/12:00am 16.0 14.7 13.8 87 1.3 SSE 13 15 7 8 1015.6 1014.3 0.0
 
Date/Time
EST
Temp
°C
App
Temp
°C
Dew
Point
Rel
Hum
%
Delta-T
°C
Wind Press
QNH
hPa
Press
MSL
hPa
Rain
since 9 am
mm
Dir
 
Spd
km/h
Gust
km/h
Spd
kts
Gust
kts
14/11:30pm 16.3 15.1 14.1 87 1.3 SSE 13 15 7 8 1015.6 - 0.0
14/11:00pm 16.5 15.8 14.3 87 1.3 SSE 11 15 6 8 1015.8 1014.5 0.0
14/10:30pm 16.6 15.5 14.4 87 1.3 SE 13 17 7 9 1015.6 - 0.0
14/10:00pm 16.9 16.7 14.7 87 1.3 SSE 9 11 5 6 1016.0 1014.8 0.0
14/09:30pm 17.1 17.3 14.7 86 1.4 SSE 7 9 4 5 1015.8 - 0.0
14/09:00pm 17.7 17.2 14.8 83 1.7 SE 11 15 6 8 1015.6 1014.3 0.0
14/08:30pm 18.4 17.1 14.9 80 2.1 SE 15 19 8 10 1015.5 - 0.0
14/08:00pm 19.1 17.5 15.0 77 2.4 SE 17 20 9 11 1015.3 1014.0 0.0
14/07:30pm 19.6 17.4 15.0 75 2.7 SE 20 24 11 13 1014.9 - 0.0
14/07:00pm 19.8 18.7 15.2 75 2.7 SE 15 19 8 10 1014.6 1013.4 0.0
14/06:30pm 20.1 18.5 15.1 73 3.0 SE 17 22 9 12 1014.1 - 0.0
14/06:00pm 21.0 19.1 15.1 69 3.5 SSE 19 24 10 13 1013.9 1012.7 0.0
14/05:30pm 21.5 20.6 15.8 70 3.5 SE 15 20 8 11 1013.5 - 0.0
14/05:00pm 20.3 18.5 15.9 76 2.7 S 20 28 11 15 1013.1 1011.8 0.0
14/04:30pm 22.1 20.0 15.2 65 4.2 ESE 20 28 11 15 1012.7 - 0.0
14/04:00pm 22.8 19.5 15.1 62 4.7 E 26 33 14 18 1012.2 1010.9 0.0
14/03:30pm 23.1 19.7 15.7 63 4.5 ESE 28 37 15 20 1012.1 - 0.0
14/03:00pm 23.0 18.5 14.8 60 4.9 ESE 32 41 17 22 1011.9 1010.6 0.0
14/02:30pm 23.6 19.2 15.1 59 5.2 ESE 32 44 17 24 1011.8 - 0.0
14/02:00pm 22.8 17.7 14.9 61 4.8 ESE 35 44 19 24 1012.0 1010.7 0.0
14/01:30pm 22.4 17.6 15.5 65 4.2 SE 35 48 19 26 1012.1 - 0.0
14/01:00pm 22.6 19.1 15.4 64 4.4 ESE 28 39 15 21 1012.3 1011.0 0.0
14/12:30pm 22.8 18.6 15.6 64 4.4 ESE 32 39 17 21 1012.5 - 0.0
14/12:00pm 23.0 18.8 16.1 65 4.2 SE 33 43 18 23 1012.9 1011.6 0.0
14/11:30am 23.1 18.5 16.2 65 4.2 ESE 35 46 19 25 1013.2 - 0.0
14/11:00am 22.1 18.3 16.6 71 3.4 ESE 32 43 17 23 1013.7 1012.5 0.0
14/10:30am 22.3 18.5 16.6 70 3.5 ESE 32 41 17 22 1014.0 - 0.0
14/10:00am 21.7 19.0 16.6 73 3.1 ESE 26 35 14 19 1014.1 1012.9 0.0
14/09:30am 21.0 17.9 16.6 76 2.7 ESE 28 35 15 19 1014.0 - 0.0
14/09:00am 20.2 18.3 16.8 81 2.1 SE 22 30 12 16 1014.0 1012.8 7.6
14/08:30am 19.6 17.5 16.3 81 2.0 SE 22 28 12 15 1013.8 - 7.6
14/08:00am 18.7 17.7 16.5 87 1.3 SSE 17 20 9 11 1013.7 1012.5 7.6
14/07:30am 18.4 17.6 16.2 87 1.3 SE 15 19 8 10 1013.6 - 7.6
14/07:00am 18.2 17.0 16.0 87 1.3 SE 17 22 9 12 1013.4 1012.2 7.6
14/06:30am 18.2 16.6 16.0 87 1.3 SE 19 26 10 14 1013.2 - 7.6
14/06:00am 18.2 17.0 16.0 87 1.3 ESE 17 24 9 13 1013.0 1011.7 7.6
14/05:30am 18.3 16.5 16.1 87 1.3 ESE 20 28 11 15 1012.7 - 7.6
14/05:00am 18.2 17.5 16.4 89 1.1 ESE 15 20 8 11 1012.7 1011.4 7.6
14/04:30am 18.1 16.6 16.4 90 1.0 SE 19 22 10 12 1012.3 - 7.4
14/04:00am 18.0 17.4 16.7 92 0.8 ESE 15 19 8 10 1012.4 1011.1 7.2
14/03:30am 18.1 17.1 16.6 91 0.9 SE 17 24 9 13 1012.4 - 7.0
14/03:00am 18.6 17.0 16.6 88 1.2 ESE 20 33 11 18 1012.5 1011.2 6.6
14/02:30am 18.6 17.2 16.6 88 1.2 ESE 19 26 10 14 1012.0 - 6.6
14/02:00am 18.8 17.9 16.8 88 1.2 SSE 17 20 9 11 1012.5 1011.2 6.6
14/01:30am 18.6 17.1 16.8 89 1.1 ESE 20 20 11 11 1012.8 - 6.6
14/01:00am 18.8 17.4 16.9 89 1.2 ESE 20 26 11 14 1013.3 1012.0 6.6
14/12:30am 18.8 17.4 16.9 89 1.2 SE 20 24 11 13 1013.1 - 6.6
14/12:00am 19.0 17.6 17.1 89 1.2 ESE 20 28 11 15 1013.4 1012.2 6.6
 
Date/Time
EST
Temp
°C
App
Temp
°C
Dew
Point
Rel
Hum
%
Delta-T
°C
Wind Press
QNH
hPa
Press
MSL
hPa
Rain
since 9 am
mm
Dir
 
Spd
km/h
Gust
km/h
Spd
kts
Gust
kts
13/11:30pm 19.0 17.9 17.3 90 1.0 ESE 19 22 10 12 1013.7 - 6.6
13/11:00pm 19.2 18.5 17.3 89 1.2 ESE 17 20 9 11 1014.3 1013.1 6.6
13/10:30pm 19.2 17.5 17.3 89 1.2 E 22 28 12 15 1013.9 - 6.6
13/10:00pm 19.2 18.6 17.5 90 1.1 SE 17 20 9 11 1015.0 1013.7 6.6
13/09:30pm 19.3 19.1 17.6 90 1.1 SSE 15 20 8 11 1015.2 - 6.6
13/09:00pm 19.2 18.1 17.7 91 0.9 ESE 20 26 11 14 1014.1 1012.9 6.6

Other Formats:

Comma delimited format used in spreadsheet applications
http://www.bom.gov.au/fwo/IDQ60801/IDQ60801.94542.axf

JavaScript Object Notation format (JSON) in row-major order
http://www.bom.gov.au/fwo/IDQ60801/IDQ60801.94542.json